Elk Park RAWS

Elevation
6292ft
Jump to table bottom
Date/Time Wind Direction Wind Speed knots Wind Gust knots RH % Accumulated Precip Inches Air Temp Fahrenheit
2022-07-02 08:37 NNW 1 2 54 0 57
2022-07-02 08:22 SE 1 2 60 0 54
2022-07-02 08:07 N 1 1 65 0 52
2022-07-02 07:37 WNW 1 2 78 0 46
2022-07-02 07:22 N 3 3 81 0 44
2022-07-02 07:07 ENE 2 3 83 0 42
2022-07-02 06:37 SW 2 4 90 0 38
2022-07-02 06:22 S 4 4 91 0 35
2022-07-02 06:07 SSE 3 4 89 0 35
2022-07-02 05:37 NE 1 2 89 0 37
2022-07-02 05:22 NNE 1 2 88 0 37
2022-07-02 05:07 N 1 3 88 0 38
2022-07-02 04:37 NNW 3 3 88 0 37
2022-07-02 04:22 NW 2 2 86 0 37
2022-07-02 04:07 0 1 87 0 39
2022-07-02 03:37 SSW 3 4 88 0 39
2022-07-02 03:22 WSW 1 2 87 0 40
2022-07-02 03:07 SSE 1 3 86 0 41
2022-07-02 02:37 0 2 83 0 42
2022-07-02 02:22 0 3 83 0 43
2022-07-02 02:07 ENE 2 3 79 0 44
2022-07-02 01:37 S 2 3 81 0 44
2022-07-02 01:22 E 3 4 79 0 45
2022-07-02 01:07 NE 2 2 80 0 46
2022-07-02 00:37 WNW 4 9 80 0 46
2022-07-02 00:22 S 3 6 79 0 46
2022-07-02 00:07 S 4 6 81 0 46
2022-07-01 23:37 0 2 75 0 49
2022-07-01 23:22 WNW 4 5 74 0 49
2022-07-01 23:07 NNE 5 8 76 0 48
2022-07-01 22:37 S 3 4 73 0 50
2022-07-01 22:22 SSW 2 3 70 0 51
2022-07-01 22:07 0 3 62 0 54
2022-07-01 21:37 0 3 61 0 55
2022-07-01 21:22 W 2 4 56 0 57
2022-07-01 21:07 ENE 3 6 45 0 60
2022-07-01 20:37 ENE 1 6 46 0 61
2022-07-01 20:22 S 5 7 45 0 62
2022-07-01 20:07 NE 4 15 45 0 65
2022-07-01 19:37 NW 3 4 40 0 67
2022-07-01 19:22 N 5 7 30 0 68
2022-07-01 19:07 NNW 4 7 28 0 70
2022-07-01 18:37 NW 7 11 28 0 70
2022-07-01 18:22 NW 5 10 25 0 71
2022-07-01 18:07 NW 9 24 28 0 66
2022-07-01 17:37 W 5 9 33 0 68
2022-07-01 17:22 NW 7 10 29 0 71
2022-07-01 17:07 NW 1 8 20 0 75
2022-07-01 16:37 WSW 6 11 23 0 74
2022-07-01 16:22 WSW 8 15 23 0 74
2022-07-01 16:07 WSW 10 15 22 0 71
2022-07-01 15:37 WNW 11 15 25 0 73
2022-07-01 15:22 SW 3 12 22 0 74
2022-07-01 15:07 W 4 13 23 0 73
2022-07-01 14:37 WNW 10 15 24 0 71
2022-07-01 14:22 W 7 12 20 0 71
2022-07-01 14:07 NW 8 14 26 0 68
2022-07-01 13:37 N 3 10 24 0 71
2022-07-01 13:22 NNW 2 9 23 0 71
2022-07-01 13:07 W 5 12 25 0 71
2022-07-01 12:37 SE 6 10 24 0 71
2022-07-01 12:22 ESE 4 7 25 0 71
2022-07-01 12:07 NNE 5 8 25 0 69
2022-07-01 11:37 WNW 2 3 25 0 69
2022-07-01 11:22 S 5 8 29 0 69
2022-07-01 11:07 SSW 5 8 27 0 67
2022-07-01 10:37 S 2 6 31 0 66
2022-07-01 10:22 SSW 4 6 30 0 65
2022-07-01 10:07 SW 5 7 35 0 64
2022-07-01 09:37 0 2 37 0 63
2022-07-01 09:22 0 4 42 0 61
2022-07-01 09:07 NE 2 4 43 0 59
2022-07-01 08:37 N 2 3 52 0 56
2022-07-01 08:22 NNW 2 3 58 0 53
2022-07-01 08:07 N 2 3 59 0 52
2022-07-01 07:37 E 1 3 71 0 48
2022-07-01 07:22 0 2 75 0 46
2022-07-01 07:07 0 3 81 0 43
2022-07-01 06:37 N 2 3 86 0 39
2022-07-01 06:22 NW 1 2 87 0 37
2022-07-01 06:07 NE 1 3 86 0 38
2022-07-01 05:37 W 1 2 84 0 40
2022-07-01 05:22 0 1 84 0 41
2022-07-01 05:07 0 0 84 0 42
2022-07-01 04:37 0 0 83 0 42
2022-07-01 04:22 ENE 3 3 82 0 42
2022-07-01 04:07 SSE 3 3 81 0 41
2022-07-01 03:37 0 3 81 0 41
2022-07-01 03:22 ESE 2 3 82 0 41
2022-07-01 03:07 NW 2 3 81 0 40
2022-07-01 02:37 NE 3 4 79 0 41
2022-07-01 02:22 ESE 2 3 80 0 40
2022-07-01 02:07 W 2 3 80 0 40
2022-07-01 01:37 0 3 77 0 40
2022-07-01 01:22 ENE 1 2 76 0 41
2022-07-01 01:07 SSE 1 3 77 0 40
2022-07-01 00:37 SSE 2 4 68 0 44
2022-07-01 00:22 SSW 3 4 70 0 43
2022-07-01 00:07 S 1 2 66 0 45
2022-06-30 23:37 0 2 52 0 51
2022-06-30 23:22 ENE 2 4 53 0 51
2022-06-30 23:07 NNE 1 4 48 0 53
2022-06-30 22:37 NW 1 4 45 0 54
2022-06-30 22:22 NNW 3 4 44 0 55
2022-06-30 22:07 NNE 3 4 44 0 55
2022-06-30 21:37 NW 8 9 48 0 54
2022-06-30 21:22 NNW 3 7 43 0 57
2022-06-30 21:07 NE 8 15 33 0 61
2022-06-30 20:37 N 6 9 34 0 61
2022-06-30 20:22 NNE 8 10 28 0 64
2022-06-30 20:07 NE 9 14 28 0 64
2022-06-30 19:37 N 7 10 27 0 66
2022-06-30 19:22 NE 7 11 25 0 68
2022-06-30 19:07 NE 11 15 24 0 68
2022-06-30 18:37 N 2 4 19 0 70
2022-06-30 18:22 WNW 2 4 18 0 71
2022-06-30 18:07 W 2 4 18 0 70
2022-06-30 17:37 NW 1 5 20 0 71
2022-06-30 17:22 WNW 2 3 19 0 69
2022-06-30 17:07 NW 7 9 20 0 69
2022-06-30 16:37 WNW 1 9 18 0 69
2022-06-30 16:22 NNW 4 8 19 0 68
2022-06-30 16:07 N 3 6 19 0 69
2022-06-30 15:37 N 7 11 19 0 68
2022-06-30 15:22 NW 3 8 18 0 69
2022-06-30 15:07 N 8 11 19 0 67
2022-06-30 14:37 S 1 8 19 0 67
2022-06-30 14:22 NE 6 11 17 0 66
2022-06-30 14:07 NNE 3 5 18 0 67
2022-06-30 13:37 SSW 3 9 15 0 65
2022-06-30 13:22 SSE 3 9 16 0 65
2022-06-30 13:07 W 7 14 15 0 65
2022-06-30 12:37 SSW 4 7 22 0 64
2022-06-30 12:22 SSE 3 9 28 0 62
2022-06-30 12:07 S 2 10 29 0 62
2022-06-30 11:37 S 4 11 28 0 61
2022-06-30 11:22 S 6 9 24 0 61
2022-06-30 11:07 S 4 9 31 0 60
2022-06-30 10:37 SSE 5 10 34 0 59
2022-06-30 10:22 SE 4 10 35 0 59
2022-06-30 10:07 S 4 7 37 0 58
2022-06-30 09:37 0 5 41 0 57
2022-06-30 09:22 S 2 3 46 0 56
2022-06-30 09:07 0 1 47 0 55
2022-06-30 08:37 E 1 2 55 0 51
2022-06-30 08:22 WNW 1 2 56 0 50
2022-06-30 08:07 SE 1 2 64 0 46
2022-06-30 07:37 0 1 77 0 42
2022-06-30 07:22 SE 1 2 82 0 37
2022-06-30 07:07 0 1 83 0 36